Time;durP1;ratioP1;P1;durP2;ratioP2;P2;SDS_P1;SDS_P2;PMS_P1;PMS_P2;Temp;Humidity;BMP_temperature;BMP_pressure;BME280_temperature;BME280_humidity;BME280_pressure;Samples;Min_cycle;Max_cycle;Signal;HPM_P1;HPM_P2
2022/03/15 00:00:22;;;;;;;44.37;28.83;;;;;;;1.02;52.75;103378.22;2080280;28;20188;-69
2022/03/15 00:01:24;;;;;;;39.95;28.00;;;;;;;1.33;52.85;103414.78;2080423;28;20176;-69
2022/03/15 00:02:24;;;;;;;43.78;29.05;;;;;;;1.33;52.76;103422.97;2079889;28;20187;-69
2022/03/15 00:03:25;;;;;;;45.63;28.87;;;;;;;1.34;52.07;103424.63;2080730;28;20176;-69
2022/03/15 00:04:26;;;;;;;47.03;29.10;;;;;;;0.58;53.00;103296.88;2079220;28;20192;-69
2022/03/15 00:05:26;;;;;;;42.93;28.77;;;;;;;1.32;52.22;103424.91;2080006;28;20165;-69
2022/03/15 00:06:27;;;;;;;47.67;29.13;;;;;;;1.30;52.39;103427.13;2080516;28;20874;-69
2022/03/15 00:07:28;;;;;;;41.17;27.83;;;;;;;1.22;51.96;103410.63;2080642;28;20176;-69
2022/03/15 00:08:30;;;;;;;41.27;27.50;;;;;;;1.30;52.42;103415.41;2080457;28;20187;-69
2022/03/15 00:09:30;;;;;;;41.08;26.80;;;;;;;1.31;52.54;103425.22;2080574;28;20270;-69
2022/03/15 00:10:31;;;;;;;41.50;27.87;;;;;;;1.32;53.01;103424.09;2080473;28;20175;-69
2022/03/15 00:11:34;;;;;;;43.63;27.40;;;;;;;1.34;53.86;103428.13;2080517;28;20182;-69
2022/03/15 00:12:34;;;;;;;39.90;27.90;;;;;;;1.20;53.95;103405.47;2079734;28;20469;-69
2022/03/15 00:13:38;;;;;;;43.23;28.07;;;;;;;1.15;53.94;103426.59;2080482;28;20185;-69
2022/03/15 00:14:40;;;;;;;41.20;26.90;;;;;;;0.97;54.89;103420.09;2080236;28;20290;-69
2022/03/15 00:15:42;;;;;;;42.03;27.27;;;;;;;0.05;54.93;103273.81;2080507;28;20241;-69
2022/03/15 00:16:43;;;;;;;41.75;26.23;;;;;;;1.12;54.47;103425.28;2080637;28;20180;-69
2022/03/15 00:17:47;;;;;;;41.93;26.83;;;;;;;1.14;53.96;103425.00;2080560;28;20179;-69
2022/03/15 00:18:48;;;;;;;48.88;30.42;;;;;;;1.15;53.27;103432.06;2080581;28;20171;-69
2022/03/15 00:19:49;;;;;;;36.60;24.43;;;;;;;1.13;54.35;103435.09;2080159;28;20696;-69
2022/03/15 00:20:49;;;;;;;33.07;21.73;;;;;;;1.15;55.31;103437.53;2080508;28;20213;-69
2022/03/15 00:21:50;;;;;;;20.90;14.77;;;;;;;1.21;54.71;103433.59;2080270;28;20188;-69
2022/03/15 00:22:55;;;;;;;25.47;15.20;;;;;;;0.77;54.11;103395.88;2079722;28;20174;-69
2022/03/15 00:23:55;;;;;;;20.48;13.48;;;;;;;1.18;54.27;103431.47;2079924;28;20607;-69
2022/03/15 00:24:56;;;;;;;18.07;12.10;;;;;;;1.16;53.87;103426.31;2080618;28;20282;-69
2022/03/15 00:25:59;;;;;;;20.27;13.37;;;;;;;0.24;54.24;103282.78;2080524;28;20666;-69
2022/03/15 00:27:00;;;;;;;23.40;15.52;;;;;;;1.12;54.47;103416.28;2080218;28;20179;-69
2022/03/15 00:28:01;;;;;;;21.15;15.02;;;;;;;1.01;53.68;103396.56;2080460;28;20313;-69
2022/03/15 00:29:01;;;;;;;19.70;14.10;;;;;;;1.23;53.72;103425.94;2080532;28;20187;-69
2022/03/15 00:30:05;;;;;;;19.30;13.97;;;;;;;1.17;53.57;103411.53;2080338;28;20218;-69
2022/03/15 00:31:05;;;;;;;16.02;12.40;;;;;;;1.26;53.87;103430.78;2080586;28;20183;-69
2022/03/15 00:32:07;;;;;;;23.87;16.40;;;;;;;1.27;53.54;103425.00;2080238;28;20234;-69
2022/03/15 00:33:08;;;;;;;24.60;17.48;;;;;;;1.30;53.55;103432.59;2079898;28;20685;-69
2022/03/15 00:34:08;;;;;;;32.63;22.20;;;;;;;1.16;53.70;103399.00;2079656;28;20571;-69
2022/03/15 00:35:14;;;;;;;32.87;20.73;;;;;;;1.33;53.49;103432.00;2079763;28;20703;-69
2022/03/15 00:36:14;;;;;;;31.52;20.88;;;;;;;1.34;53.87;103441.00;2079793;28;20200;-69
2022/03/15 00:37:15;;;;;;;21.23;13.37;;;;;;;1.03;53.44;103407.97;2080719;28;20208;-69
2022/03/15 00:38:16;;;;;;;21.33;14.47;;;;;;;1.22;54.08;103436.03;2080288;28;20268;-69
2022/03/15 00:39:16;;;;;;;18.73;13.57;;;;;;;1.25;53.96;103451.84;2080694;28;20662;-69
2022/03/15 00:40:18;;;;;;;18.40;12.17;;;;;;;1.30;53.64;103434.53;2080194;28;20628;-69
2022/03/15 00:41:19;;;;;;;22.50;13.82;;;;;;;1.28;53.84;103429.34;2080110;28;20203;-69
2022/03/15 00:42:20;;;;;;;18.17;12.52;;;;;;;1.28;53.61;103437.56;2079476;28;20177;-69
2022/03/15 00:43:21;;;;;;;24.63;16.20;;;;;;;1.26;54.01;103431.59;2080479;28;20173;-69
2022/03/15 00:44:22;;;;;;;21.63;13.43;;;;;;;0.56;53.74;103350.13;2079429;28;20184;-69
2022/03/15 00:45:23;;;;;;;20.83;13.63;;;;;;;1.05;53.74;103419.44;2080639;28;20423;-69
2022/03/15 00:46:24;;;;;;;25.20;14.10;;;;;;;1.13;53.83;103469.81;2079789;28;20199;-69
2022/03/15 00:47:25;;;;;;;20.47;13.93;;;;;;;1.12;53.32;103444.41;2079939;28;20246;-69
2022/03/15 00:48:25;;;;;;;17.23;12.73;;;;;;;1.16;53.76;103439.97;2079548;28;20189;-69
2022/03/15 00:49:26;;;;;;;21.43;12.10;;;;;;;1.18;53.71;103436.94;2079930;28;20200;-69
2022/03/15 00:50:30;;;;;;;18.03;11.00;;;;;;;1.18;53.76;103440.47;2080034;28;20693;-69
2022/03/15 00:51:33;;;;;;;14.32;11.10;;;;;;;1.16;54.65;103433.69;2080196;28;20255;-69
2022/03/15 00:52:34;;;;;;;21.38;13.13;;;;;;;0.63;53.91;103361.50;2079883;28;20187;-69
2022/03/15 00:53:34;;;;;;;19.77;13.90;;;;;;;1.20;53.61;103434.72;2080526;28;20259;-69
2022/03/15 00:54:35;;;;;;;17.53;11.57;;;;;;;1.21;54.22;103431.69;2079665;28;20212;-69
2022/03/15 00:55:36;;;;;;;16.07;11.37;;;;;;;1.23;53.76;103434.13;2080305;28;20180;-69
2022/03/15 00:56:36;;;;;;;19.60;13.45;;;;;;;1.24;53.95;103422.06;2080260;28;20313;-69
2022/03/15 00:57:37;;;;;;;15.90;11.57;;;;;;;1.27;54.00;103425.00;2080288;28;20660;-69
2022/03/15 00:58:37;;;;;;;18.87;10.97;;;;;;;1.26;55.24;103417.94;2079827;28;20533;-69
2022/03/15 00:59:38;;;;;;;16.07;11.37;;;;;;;1.25;53.67;103416.31;2080325;28;20188;-69
2022/03/15 01:00:39;;;;;;;18.20;11.40;;;;;;;1.28;53.39;103409.44;2081977;28;20172;-69
2022/03/15 01:01:40;;;;;;;16.67;11.60;;;;;;;1.29;53.98;103411.06;2081567;28;20729;-69
2022/03/15 01:02:41;;;;;;;17.83;11.73;;;;;;;1.28;53.59;103406.72;2080900;28;20502;-69
2022/03/15 01:03:41;;;;;;;18.23;12.07;;;;;;;1.29;53.89;103409.13;2081242;28;20557;-69
2022/03/15 01:04:42;;;;;;;17.43;11.77;;;;;;;1.29;53.59;103403.66;2082033;28;20712;-69
2022/03/15 01:05:42;;;;;;;17.03;12.07;;;;;;;1.29;53.62;103397.41;2081875;28;20234;-69
2022/03/15 01:06:43;;;;;;;23.53;13.63;;;;;;;1.29;54.88;103394.66;2082051;28;20267;-69
2022/03/15 01:07:43;;;;;;;21.23;13.53;;;;;;;1.30;54.23;103396.28;2081578;28;20546;-69
2022/03/15 01:08:44;;;;;;;18.60;13.67;;;;;;;0.14;53.92;103195.69;2081874;28;20624;-69
2022/03/15 01:09:44;;;;;;;20.93;14.23;;;;;;;1.22;53.98;103372.38;2081555;28;20176;-69
2022/03/15 01:10:45;;;;;;;22.73;13.73;;;;;;;1.30;53.99;103377.94;2081821;28;20261;-69
2022/03/15 01:11:45;;;;;;;19.80;13.60;;;;;;;0.88;53.89;103314.63;2081596;28;20179;-69
2022/03/15 01:12:46;;;;;;;20.37;13.73;;;;;;;1.27;54.08;103375.84;2081440;28;20175;-69
2022/03/15 01:13:47;;;;;;;18.03;12.47;;;;;;;0.32;54.94;103218.53;2080979;28;20175;-69
2022/03/15 01:14:48;;;;;;;17.17;12.25;;;;;;;1.26;54.58;103366.03;2081620;28;20584;-69
2022/03/15 01:15:50;;;;;;;16.70;12.57;;;;;;;1.28;55.65;103371.97;2081733;28;20215;-69
2022/03/15 01:16:51;;;;;;;16.60;11.93;;;;;;;1.33;57.37;103369.16;2081641;28;20176;-69
2022/03/15 01:17:52;;;;;;;17.60;12.63;;;;;;;1.03;56.28;103322.53;2081876;28;20180;-69
2022/03/15 01:18:52;;;;;;;16.27;12.27;;;;;;;1.34;55.55;103387.16;2081722;28;20183;-69
2022/03/15 01:19:53;;;;;;;15.90;11.87;;;;;;;1.38;55.93;103354.56;2081639;28;20427;-69
2022/03/15 01:20:53;;;;;;;17.23;12.80;;;;;;;1.39;56.85;103351.53;2081715;28;20176;-69
2022/03/15 01:21:54;;;;;;;17.57;12.23;;;;;;;1.40;55.97;103344.94;2081571;28;20180;-69
2022/03/15 01:22:54;;;;;;;17.83;12.20;;;;;;;1.42;55.62;103348.19;2081330;28;20183;-68
2022/03/15 01:23:55;;;;;;;16.63;12.60;;;;;;;1.12;55.78;103288.72;2080925;28;20584;-68
2022/03/15 01:24:56;;;;;;;19.60;13.20;;;;;;;1.45;56.15;103339.38;2081827;28;20202;-68
2022/03/15 01:25:56;;;;;;;17.47;12.87;;;;;;;1.46;55.81;103338.28;2081612;28;20180;-68
2022/03/15 01:26:58;;;;;;;15.20;12.50;;;;;;;1.46;55.74;103332.00;2081531;28;20418;-68
2022/03/15 01:27:59;;;;;;;18.33;12.25;;;;;;;1.41;55.34;103332.09;2081781;28;20188;-68
2022/03/15 01:29:01;;;;;;;20.03;12.90;;;;;;;1.48;54.83;103352.44;2081728;28;20187;-68
2022/03/15 01:30:03;;;;;;;21.55;13.23;;;;;;;1.50;54.87;103343.94;2081509;28;20180;-68
2022/03/15 01:31:03;;;;;;;24.92;14.10;;;;;;;1.47;54.61;103353.56;2081622;28;20633;-68
2022/03/15 01:32:04;;;;;;;22.67;13.97;;;;;;;1.43;54.56;103340.78;2081284;28;20273;-68
2022/03/15 01:33:05;;;;;;;18.77;13.40;;;;;;;1.48;54.68;103376.22;2081149;28;20697;-68
2022/03/15 01:34:05;;;;;;;19.73;13.37;;;;;;;1.39;56.00;103340.59;2080834;28;20188;-68
2022/03/15 01:35:06;;;;;;;21.47;13.07;;;;;;;1.44;56.53;103383.44;2081624;28;20307;-68
2022/03/15 01:36:07;;;;;;;23.08;13.70;;;;;;;1.44;56.11;103351.44;2081673;28;20181;-69
2022/03/15 01:37:07;;;;;;;23.00;14.77;;;;;;;1.47;54.74;103355.47;2081718;28;20189;-69
2022/03/15 01:38:09;;;;;;;33.87;14.73;;;;;;;1.45;53.76;103365.91;2081403;28;20692;-69
2022/03/15 01:39:10;;;;;;;26.23;14.80;;;;;;;1.40;52.85;103366.03;2081706;28;20179;-69
2022/03/15 01:40:11;;;;;;;23.88;15.40;;;;;;;1.35;51.89;103366.91;2081277;28;20172;-69
2022/03/15 01:41:12;;;;;;;23.07;15.30;;;;;;;1.29;51.90;103367.34;2081719;28;20274;-69
2022/03/15 01:42:12;;;;;;;23.77;15.73;;;;;;;0.40;51.49;103243.19;2081254;28;20172;-69
2022/03/15 01:43:13;;;;;;;23.90;17.07;;;;;;;1.14;50.53;103367.63;2081282;28;20194;-69
2022/03/15 01:44:23;;;;;;;23.90;16.43;;;;;;;0.61;51.33;103304.47;2080591;28;20667;-69
2022/03/15 01:45:34;;;;;;;26.40;17.27;;;;;;;0.94;50.51;103357.88;2080887;28;20222;-69
2022/03/15 01:46:34;;;;;;;25.48;16.80;;;;;;;0.82;50.72;103357.56;2080938;28;20197;-69
2022/03/15 01:47:35;;;;;;;27.60;17.23;;;;;;;0.73;50.90;103356.63;2081536;28;20270;-69
2022/03/15 01:48:35;;;;;;;23.83;16.57;;;;;;;0.68;51.25;103350.47;2080826;28;20191;-69
2022/03/15 01:49:36;;;;;;;27.90;16.93;;;;;;;0.55;51.16;103348.50;2080863;28;20176;-69
2022/03/15 01:50:37;;;;;;;28.93;17.60;;;;;;;0.17;52.44;103325.97;2081440;28;20180;-69
2022/03/15 01:51:40;;;;;;;25.33;17.48;;;;;;;0.36;52.60;103353.22;2081331;28;20234;-69
2022/03/15 01:52:42;;;;;;;27.95;17.05;;;;;;;0.16;52.43;103332.53;2080949;28;20192;-69
2022/03/15 01:53:43;;;;;;;25.95;16.85;;;;;;;0.35;52.61;103359.75;2080851;28;20215;-69
2022/03/15 01:54:44;;;;;;;24.03;16.97;;;;;;;0.26;52.23;103350.66;2081263;28;20199;-69
2022/03/15 01:55:45;;;;;;;25.73;17.38;;;;;;;0.33;51.92;103362.81;2081437;28;20179;-69
2022/03/15 01:56:46;;;;;;;26.93;17.83;;;;;;;0.31;52.16;103366.94;2081454;28;20270;-69
2022/03/15 01:57:47;;;;;;;30.83;18.77;;;;;;;0.27;52.21;103363.19;2081470;28;20182;-69
2022/03/15 01:58:48;;;;;;;37.20;18.70;;;;;;;0.23;51.97;103373.88;2081514;28;20558;-69
2022/03/15 01:59:49;;;;;;;33.37;18.27;;;;;;;0.22;51.92;103376.91;2080086;28;20187;-69
2022/03/15 02:00:49;;;;;;;25.63;16.47;;;;;;;0.17;51.48;103379.72;2081446;28;20619;-69
2022/03/15 02:01:50;;;;;;;27.03;17.30;;;;;;;0.12;51.32;103374.31;2081234;28;20724;-69
2022/03/15 02:02:50;;;;;;;27.80;16.77;;;;;;;0.09;51.22;103369.44;2080809;28;20554;-69
2022/03/15 02:03:51;;;;;;;23.40;17.40;;;;;;;-0.01;51.42;103373.16;2080959;28;20257;-69
2022/03/15 02:04:52;;;;;;;26.00;16.37;;;;;;;-0.08;51.52;103371.91;2081248;28;20658;-69
2022/03/15 02:05:52;;;;;;;27.73;17.00;;;;;;;-0.21;52.02;103373.44;2081503;28;20197;-69
2022/03/15 02:07:07;;;;;;;24.93;16.73;;;;;;;-1.28;51.99;103229.16;2081225;28;20656;-69
2022/03/15 02:08:15;;;;;;;28.88;17.23;;;;;;;-0.47;52.77;103367.81;2081262;28;20159;-68
2022/03/15 02:09:16;;;;;;;27.05;17.30;;;;;;;-0.69;53.95;103365.63;2081838;28;20174;-68
2022/03/15 02:10:16;;;;;;;30.77;18.57;;;;;;;-0.63;54.62;103368.00;2081031;28;20202;-68
2022/03/15 02:11:17;;;;;;;32.87;17.43;;;;;;;-0.67;54.78;103369.69;2080818;28;20479;-68
2022/03/15 02:12:17;;;;;;;26.30;17.17;;;;;;;-0.67;55.38;103364.22;2080949;28;20171;-68
2022/03/15 02:13:18;;;;;;;29.37;16.87;;;;;;;-0.68;55.37;103380.06;2080725;28;20202;-68
2022/03/15 02:14:19;;;;;;;26.40;18.33;;;;;;;-0.76;55.22;103357.00;2079581;28;20189;-68
2022/03/15 02:15:19;;;;;;;27.90;17.60;;;;;;;-0.68;55.79;103368.06;2081279;28;20172;-68
2022/03/15 02:16:20;;;;;;;29.60;17.67;;;;;;;-0.74;55.75;103368.41;2081447;28;20169;-68
2022/03/15 02:17:20;;;;;;;28.30;18.10;;;;;;;-0.77;55.46;103360.00;2080862;28;20188;-68
2022/03/15 02:18:25;;;;;;;33.23;18.60;;;;;;;-0.76;55.47;103362.44;2080605;28;20201;-68
2022/03/15 02:19:27;;;;;;;34.65;19.15;;;;;;;-0.73;55.30;103359.13;2080768;28;20180;-68
2022/03/15 02:20:28;;;;;;;27.55;17.40;;;;;;;-0.77;56.49;103352.63;2080375;28;20323;-68
2022/03/15 02:21:29;;;;;;;29.93;17.93;;;;;;;-0.88;57.14;103360.13;2080423;28;20181;-68
2022/03/15 02:22:30;;;;;;;34.55;18.70;;;;;;;-0.76;56.59;103355.06;2080023;28;20626;-68
2022/03/15 02:23:30;;;;;;;28.03;17.73;;;;;;;-0.72;57.30;103358.84;2080599;28;20186;-68
2022/03/15 02:24:31;;;;;;;30.90;17.97;;;;;;;-1.28;57.22;103274.59;2079820;28;20182;-68
2022/03/15 02:25:32;;;;;;;31.90;18.92;;;;;;;-0.68;56.53;103374.63;2081393;28;20183;-68
2022/03/15 02:26:32;;;;;;;37.30;17.80;;;;;;;-0.62;56.58;103364.16;2081179;28;20173;-68
2022/03/15 02:27:33;;;;;;;49.27;20.83;;;;;;;-0.80;56.60;103321.34;2081267;28;20184;-68
2022/03/15 02:28:33;;;;;;;52.00;20.13;;;;;;;-0.48;59.04;103358.81;2081192;28;20653;-68
2022/03/15 02:29:34;;;;;;;40.67;20.13;;;;;;;-0.50;57.55;103359.09;2081135;28;20645;-68
2022/03/15 02:30:35;;;;;;;40.60;19.40;;;;;;;-0.51;57.08;103353.97;2081180;28;20209;-68
2022/03/15 02:31:35;;;;;;;38.00;19.20;;;;;;;-0.47;56.97;103362.38;2081096;28;20265;-68
2022/03/15 02:32:38;;;;;;;32.13;18.77;;;;;;;-0.42;56.49;103363.91;2080681;28;20177;-68
2022/03/15 02:33:38;;;;;;;33.20;17.67;;;;;;;-0.36;56.12;103367.38;2080509;28;20177;-68
2022/03/15 02:34:39;;;;;;;32.47;18.97;;;;;;;-0.34;55.70;103367.91;2080962;28;20720;-68
2022/03/15 02:35:39;;;;;;;29.03;18.17;;;;;;;-0.35;55.49;103367.06;2081059;28;20247;-68
2022/03/15 02:36:40;;;;;;;33.77;17.57;;;;;;;-1.13;55.20;103239.03;2081298;28;20186;-68
2022/03/15 02:37:41;;;;;;;32.97;18.33;;;;;;;-0.36;55.22;103373.63;2081220;28;20179;-68
2022/03/15 02:38:46;;;;;;;35.13;18.67;;;;;;;-0.87;54.78;103318.19;2081136;28;20183;-68
2022/03/15 02:39:46;;;;;;;33.90;18.05;;;;;;;-0.38;57.04;103375.84;2080333;28;20188;-68
2022/03/15 02:40:47;;;;;;;29.77;18.07;;;;;;;-0.37;56.94;103374.75;2080591;28;20263;-68
2022/03/15 02:41:48;;;;;;;30.57;17.77;;;;;;;-1.37;56.74;103234.41;2080811;28;20474;-68
2022/03/15 02:42:48;;;;;;;29.53;18.03;;;;;;;-0.36;55.96;103367.38;2080609;28;20173;-68
2022/03/15 02:43:49;;;;;;;26.27;17.37;;;;;;;-0.34;55.98;103373.34;2079701;28;20190;-68
2022/03/15 02:44:49;;;;;;;30.20;17.67;;;;;;;-0.39;55.80;103349.69;2080317;28;20188;-68
2022/03/15 02:45:50;;;;;;;27.40;17.67;;;;;;;-0.29;55.95;103368.63;2081270;28;20185;-68
2022/03/15 02:46:51;;;;;;;29.17;17.00;;;;;;;-0.28;56.20;103367.56;2081114;28;20209;-68
2022/03/15 02:47:51;;;;;;;25.93;16.87;;;;;;;-0.28;55.80;103369.44;2081228;28;20659;-68
2022/03/15 02:48:52;;;;;;;26.77;16.60;;;;;;;-0.27;55.62;103373.78;2080996;28;20256;-68
2022/03/15 02:49:52;;;;;;;51.43;20.27;;;;;;;-0.31;55.74;103376.28;2080246;28;20189;-68
2022/03/15 02:50:53;;;;;;;38.37;18.10;;;;;;;-0.76;55.76;103319.69;2080288;28;20224;-68
2022/03/15 02:51:54;;;;;;;36.20;17.92;;;;;;;-0.30;55.53;103372.47;2080948;28;20185;-68
2022/03/15 02:52:55;;;;;;;31.40;17.70;;;;;;;-0.29;55.85;103367.84;2080542;28;20178;-68
2022/03/15 02:53:56;;;;;;;38.40;17.87;;;;;;;-0.27;55.24;103374.63;2080228;28;20368;-68
2022/03/15 02:54:58;;;;;;;30.40;18.50;;;;;;;-1.63;54.89;103161.56;2080947;28;20621;-68
2022/03/15 02:55:59;;;;;;;31.25;17.80;;;;;;;-0.34;55.38;103378.81;2080847;28;20266;-68
2022/03/15 02:57:01;;;;;;;25.27;16.60;;;;;;;-0.31;55.21;103380.91;2080974;28;20181;-68
2022/03/15 02:58:02;;;;;;;29.33;17.48;;;;;;;-0.32;54.94;103378.50;2080119;28;20180;-68
2022/03/15 02:59:03;;;;;;;28.23;17.35;;;;;;;-0.37;55.06;103382.09;2080356;28;20265;-68
2022/03/15 03:00:04;;;;;;;26.87;17.07;;;;;;;-1.42;54.49;103222.78;2080351;28;20175;-68
2022/03/15 03:01:05;;;;;;;25.15;17.25;;;;;;;-0.42;54.36;103390.34;2081018;28;20232;-68
2022/03/15 03:02:08;;;;;;;25.07;16.70;;;;;;;-1.75;54.72;103172.00;2080760;28;20194;-68
2022/03/15 03:03:08;;;;;;;29.58;17.95;;;;;;;-0.52;54.75;103376.03;2080386;28;20420;-68
2022/03/15 03:04:10;;;;;;;27.40;17.20;;;;;;;-0.67;55.37;103352.50;2080118;28;20193;-68
2022/03/15 03:05:10;;;;;;;26.23;18.23;;;;;;;-0.57;56.20;103369.56;2080911;28;20644;-68
2022/03/15 03:06:11;;;;;;;27.87;18.77;;;;;;;-0.57;57.49;103363.28;2080905;28;20611;-68
2022/03/15 03:07:14;;;;;;;28.30;19.23;;;;;;;-1.23;57.79;103259.00;2081095;28;20171;-68
2022/03/15 03:08:16;;;;;;;28.65;18.67;;;;;;;-0.53;57.43;103367.06;2080787;28;20181;-68
2022/03/15 03:09:16;;;;;;;26.65;17.20;;;;;;;-0.54;57.05;103370.88;2081039;28;20182;-68
2022/03/15 03:10:17;;;;;;;27.97;18.17;;;;;;;-0.63;56.27;103352.78;2080532;28;20177;-68
2022/03/15 03:11:18;;;;;;;24.03;17.83;;;;;;;-0.55;56.22;103372.00;2080927;28;20174;-68
2022/03/15 03:12:18;;;;;;;28.03;17.87;;;;;;;-1.05;56.36;103304.53;2080255;28;20632;-68
2022/03/15 03:13:24;;;;;;;26.10;17.43;;;;;;;-0.59;56.47;103368.22;2081090;28;20175;-68
2022/03/15 03:14:25;;;;;;;26.50;17.80;;;;;;;-0.62;56.37;103377.78;2080051;28;20166;-68
2022/03/15 03:15:26;;;;;;;25.53;17.20;;;;;;;-0.72;56.00;103356.13;2080678;28;20205;-68
2022/03/15 03:16:28;;;;;;;27.33;18.03;;;;;;;-0.66;56.05;103395.00;2080851;28;20177;-68
2022/03/15 03:17:29;;;;;;;26.77;17.52;;;;;;;-0.62;56.23;103374.25;2080885;28;20791;-68
2022/03/15 03:18:33;;;;;;;24.90;16.33;;;;;;;-1.32;56.15;103258.03;2080712;28;20236;-68
2022/03/15 03:19:38;;;;;;;26.27;16.80;;;;;;;-0.87;57.64;103356.28;2080675;28;20183;-68
2022/03/15 03:20:38;;;;;;;24.60;16.42;;;;;;;-0.71;58.63;103370.56;2081006;28;20663;-68
2022/03/15 03:21:40;;;;;;;25.33;15.07;;;;;;;-0.66;58.24;103367.78;2080766;28;20552;-68
2022/03/15 03:22:41;;;;;;;21.40;15.15;;;;;;;-0.58;57.63;103369.84;2080164;28;20745;-69
2022/03/15 03:23:41;;;;;;;25.63;15.98;;;;;;;-0.55;57.56;103370.06;2079905;28;20186;-69
2022/03/15 03:24:42;;;;;;;23.87;15.17;;;;;;;-0.48;57.58;103377.09;2080889;28;20207;-69
2022/03/15 03:25:43;;;;;;;18.70;14.23;;;;;;;-0.46;57.78;103381.16;2080648;28;20174;-69
2022/03/15 03:26:44;;;;;;;21.15;14.77;;;;;;;-0.43;58.44;103370.47;2080777;28;20188;-69
2022/03/15 03:27:46;;;;;;;21.70;15.77;;;;;;;-0.46;57.86;103414.63;2080814;28;20188;-69
2022/03/15 03:28:47;;;;;;;28.73;16.02;;;;;;;-1.22;57.51;103230.72;2080858;28;20205;-69
2022/03/15 03:29:48;;;;;;;27.33;16.83;;;;;;;-0.31;57.08;103368.13;2080629;28;20695;-68
2022/03/15 03:30:48;;;;;;;31.40;16.43;;;;;;;-0.29;56.49;103376.00;2080791;28;20175;-68
2022/03/15 03:31:49;;;;;;;29.37;16.33;;;;;;;-0.28;56.50;103373.00;2080436;28;20235;-68
2022/03/15 03:32:50;;;;;;;25.97;17.30;;;;;;;-0.27;55.97;103371.88;2080137;28;20185;-68
2022/03/15 03:33:51;;;;;;;27.37;16.13;;;;;;;-0.26;55.73;103387.13;2080075;28;20485;-68
2022/03/15 03:34:53;;;;;;;21.65;15.48;;;;;;;-0.24;55.20;103384.91;2080679;28;20200;-68
2022/03/15 03:35:53;;;;;;;23.25;15.88;;;;;;;-0.26;54.22;103389.03;2080678;28;20607;-68
2022/03/15 03:36:54;;;;;;;23.63;16.10;;;;;;;-0.33;54.33;103391.31;2080661;28;20232;-68
2022/03/15 03:37:54;;;;;;;29.77;17.07;;;;;;;-0.40;55.15;103391.66;2080689;28;20183;-68
2022/03/15 03:38:55;;;;;;;27.80;16.90;;;;;;;-0.44;54.84;103387.09;2080578;28;20173;-68
2022/03/15 03:39:55;;;;;;;29.47;15.53;;;;;;;-0.48;56.27;103390.72;2080542;28;20177;-68
2022/03/15 03:40:57;;;;;;;23.10;15.53;;;;;;;-1.49;56.40;103227.75;2080774;28;20197;-68
2022/03/15 03:41:58;;;;;;;26.88;15.45;;;;;;;-0.52;55.90;103396.72;2080392;28;20191;-68
2022/03/15 03:42:59;;;;;;;27.33;16.45;;;;;;;-0.52;55.76;103394.00;2080414;28;20200;-68
2022/03/15 03:44:00;;;;;;;22.10;14.93;;;;;;;-0.55;56.40;103389.13;2080016;28;20189;-68
2022/03/15 03:45:00;;;;;;;19.50;14.63;;;;;;;-0.51;57.20;103397.56;2080667;28;20653;-68
2022/03/15 03:46:02;;;;;;;17.93;13.33;;;;;;;-1.42;57.60;103255.41;2080491;28;20184;-68
2022/03/15 03:47:04;;;;;;;21.63;13.52;;;;;;;-0.55;58.17;103380.16;2080697;28;20189;-68
2022/03/15 03:48:06;;;;;;;24.23;16.23;;;;;;;-2.14;56.94;103129.75;2080607;28;20181;-68
2022/03/15 03:49:06;;;;;;;24.35;15.00;;;;;;;-0.44;56.87;103395.28;2080741;28;20206;-68
2022/03/15 03:50:09;;;;;;;28.10;15.83;;;;;;;-0.45;57.16;103393.66;2080477;28;20193;-68
2022/03/15 03:51:10;;;;;;;31.80;17.80;;;;;;;-0.46;56.71;103392.84;2080578;28;20965;-68
2022/03/15 03:52:12;;;;;;;29.50;17.15;;;;;;;-0.42;56.72;103390.34;2080423;28;20584;-68
2022/03/15 03:53:13;;;;;;;32.17;22.00;;;;;;;-1.06;57.51;103294.75;2080191;28;20206;-68
2022/03/15 03:54:14;;;;;;;41.53;28.73;;;;;;;-0.45;58.10;103391.72;2079825;28;20182;-68
2022/03/15 03:55:14;;;;;;;44.63;29.03;;;;;;;-0.50;59.04;103383.63;2079978;28;20289;-68
2022/03/15 03:56:15;;;;;;;27.03;16.60;;;;;;;-0.85;56.31;103320.63;2079631;28;20182;-68
2022/03/15 03:57:16;;;;;;;22.37;15.43;;;;;;;-1.24;55.42;103259.31;2080807;28;20171;-69
2022/03/15 03:58:16;;;;;;;25.63;16.43;;;;;;;-0.38;56.17;103392.22;2080521;28;20297;-69
2022/03/15 03:59:17;;;;;;;27.03;16.17;;;;;;;-0.39;56.15;103397.94;2080907;28;20170;-69
2022/03/15 04:00:18;;;;;;;27.90;17.87;;;;;;;-0.87;56.21;103333.72;2080134;28;20204;-69
2022/03/15 04:01:18;;;;;;;44.27;28.07;;;;;;;-0.41;57.23;103400.94;2080650;28;20182;-69
2022/03/15 04:02:19;;;;;;;46.17;30.57;;;;;;;-0.39;57.17;103397.94;2079744;28;20203;-69
2022/03/15 04:03:19;;;;;;;24.57;16.37;;;;;;;-0.39;57.12;103398.72;2080691;28;20170;-69
2022/03/15 04:04:20;;;;;;;27.63;16.27;;;;;;;-1.23;56.08;103259.00;2079843;28;20257;-69
2022/03/15 04:05:20;;;;;;;38.97;17.57;;;;;;;-0.30;55.62;103398.91;2080805;28;20598;-69
2022/03/15 04:06:21;;;;;;;29.13;15.70;;;;;;;-0.28;55.09;103402.16;2080265;28;20639;-69
2022/03/15 04:07:21;;;;;;;27.37;15.07;;;;;;;-0.32;54.73;103404.66;2080558;28;20565;-69
2022/03/15 04:08:23;;;;;;;32.73;21.77;;;;;;;-0.40;56.57;103402.56;2080353;28;20562;-69
2022/03/15 04:09:24;;;;;;;36.50;23.92;;;;;;;-0.42;57.07;103402.06;2080642;28;20174;-69
2022/03/15 04:10:30;;;;;;;29.60;18.27;;;;;;;-0.41;56.78;103400.94;2080321;28;20729;-69
2022/03/15 04:11:31;;;;;;;24.05;15.38;;;;;;;-1.43;55.40;103242.09;2080533;28;20163;-69
2022/03/15 04:12:33;;;;;;;22.42;15.68;;;;;;;-0.41;54.66;103403.69;2079942;28;20547;-68
2022/03/15 04:13:33;;;;;;;27.73;18.13;;;;;;;-0.46;55.00;103411.91;2080730;28;20178;-68
2022/03/15 04:14:36;;;;;;;34.77;23.37;;;;;;;-1.56;55.80;103224.56;2079602;28;20742;-68
2022/03/15 04:15:37;;;;;;;36.75;23.20;;;;;;;-0.54;58.10;103406.31;2080500;28;20178;-68
2022/03/15 04:16:39;;;;;;;36.77;22.67;;;;;;;-0.55;58.69;103391.84;2080312;28;20214;-68
2022/03/15 04:17:39;;;;;;;32.15;21.67;;;;;;;-0.55;58.41;103404.69;2080486;28;20175;-68
2022/03/15 04:18:40;;;;;;;31.93;21.37;;;;;;;-0.68;59.24;103378.97;2080514;28;20269;-68
2022/03/15 04:19:41;;;;;;;30.90;20.37;;;;;;;-0.51;58.80;103392.09;2080417;28;20178;-68
2022/03/15 04:20:41;;;;;;;31.33;20.83;;;;;;;-0.47;57.79;103411.41;2080606;28;20264;-68
2022/03/15 04:21:42;;;;;;;29.83;20.47;;;;;;;-0.51;59.07;103422.06;2080238;28;20201;-68
2022/03/15 04:22:44;;;;;;;25.30;17.50;;;;;;;-0.88;58.19;103337.53;2079958;28;20182;-68
2022/03/15 04:23:47;;;;;;;25.30;16.30;;;;;;;-0.63;59.65;103348.13;2079825;28;20568;-68
2022/03/15 04:24:48;;;;;;;27.60;19.58;;;;;;;-0.60;58.87;103375.56;2080511;28;20171;-68
2022/03/15 04:25:51;;;;;;;29.97;19.43;;;;;;;-1.13;58.01;103279.84;2080660;28;20174;-68
2022/03/15 04:26:52;;;;;;;26.98;19.02;;;;;;;-0.35;57.05;103404.44;2080190;28;20175;-68
2022/03/15 04:27:56;;;;;;;29.70;20.33;;;;;;;-0.32;56.76;103399.22;2080528;28;20678;-68
2022/03/15 04:28:57;;;;;;;28.52;19.15;;;;;;;-0.32;57.61;103393.75;2080427;28;20657;-68
2022/03/15 04:29:57;;;;;;;26.07;16.27;;;;;;;-0.30;57.82;103399.72;2080269;28;20638;-68
2022/03/15 04:30:58;;;;;;;21.53;15.47;;;;;;;-0.31;58.16;103400.00;2080473;28;20689;-68
2022/03/15 04:31:58;;;;;;;22.10;14.97;;;;;;;-0.34;58.55;103401.41;2080197;28;20193;-68
2022/03/15 04:33:01;;;;;;;25.80;17.73;;;;;;;-0.31;57.84;103394.53;2080014;28;20692;-68
2022/03/15 04:34:02;;;;;;;25.60;16.45;;;;;;;-0.24;57.83;103392.28;2080026;28;20178;-68
2022/03/15 04:35:02;;;;;;;23.20;15.93;;;;;;;-0.18;58.13;103399.28;2081951;28;20285;-68
2022/03/15 04:36:03;;;;;;;26.10;16.43;;;;;;;-0.40;57.77;103353.53;2082039;28;20647;-68
2022/03/15 04:37:04;;;;;;;28.00;18.00;;;;;;;-0.61;58.07;103333.09;2081963;28;20419;-68
2022/03/15 04:38:04;;;;;;;29.73;17.47;;;;;;;-0.09;57.87;103397.53;2082093;28;20568;-68
2022/03/15 04:39:05;;;;;;;33.53;18.53;;;;;;;-0.67;57.55;103301.59;2082056;28;20187;-68